Time;durP1;ratioP1;P1;durP2;ratioP2;P2;SDS_P1;SDS_P2;PMS_P1;PMS_P2;Temp;Humidity;BMP_temperature;BMP_pressure;BME280_temperature;BME280_humidity;BME280_pressure;Samples;Min_cycle;Max_cycle;Signal;HPM_P1;HPM_P2
2023/01/02 00:00:14;;;;;;;1.90;1.60;;;5.10;99.90;;;;;;5048915;28;20477;-49
2023/01/02 00:02:41;;;;;;;1.73;1.00;;;5.10;99.90;;;;;;5048586;28;20506;-50
2023/01/02 00:05:09;;;;;;;1.10;0.90;;;5.20;99.90;;;;;;5048048;28;20552;-50
2023/01/02 00:07:36;;;;;;;1.50;1.20;;;5.50;99.90;;;;;;5049663;28;20908;-48
2023/01/02 00:10:03;;;;;;;2.17;1.10;;;4.90;99.90;;;;;;5050486;28;20539;-49
2023/01/02 00:12:30;;;;;;;1.97;1.03;;;4.60;99.90;;;;;;5049800;28;20532;-48
2023/01/02 00:14:58;;;;;;;1.00;0.60;;;4.70;99.90;;;;;;5049590;28;20497;-48
2023/01/02 00:17:25;;;;;;;1.10;1.00;;;4.80;99.90;;;;;;5050684;28;20531;-48
2023/01/02 00:19:52;;;;;;;1.30;0.87;;;5.10;99.90;;;;;;5055098;28;20479;-50
2023/01/02 00:22:19;;;;;;;1.10;0.83;;;5.20;99.90;;;;;;5050546;28;20480;-48
2023/01/02 00:24:46;;;;;;;1.30;0.73;;;5.40;99.90;;;;;;5046990;28;20501;-49
2023/01/02 00:27:14;;;;;;;1.10;0.77;;;5.60;99.90;;;;;;5042882;28;20603;-49
2023/01/02 00:29:40;;;;;;;2.07;1.37;;;5.50;99.90;;;;;;5033657;28;20562;-48
2023/01/02 00:32:09;;;;;;;1.80;1.60;;;5.00;99.90;;;;;;5047870;28;20537;-48
2023/01/02 00:34:36;;;;;;;3.00;2.03;;;4.80;99.90;;;;;;5031011;28;20969;-48
2023/01/02 00:37:02;;;;;;;1.53;0.90;;;4.60;99.90;;;;;;5048385;28;20469;-50
2023/01/02 00:39:29;;;;;;;1.53;1.10;;;4.70;99.90;;;;;;5049536;28;20528;-50
2023/01/02 00:41:56;;;;;;;1.50;1.10;;;4.70;99.90;;;;;;5047524;28;20446;-49
2023/01/02 00:44:23;;;;;;;1.10;0.70;;;4.80;99.90;;;;;;5048872;28;20497;-48
2023/01/02 00:46:50;;;;;;;3.33;1.10;;;5.20;99.90;;;;;;5049940;28;20563;-48
2023/01/02 00:49:18;;;;;;;1.93;0.93;;;5.10;99.90;;;;;;5049427;28;20554;-48
2023/01/02 00:51:45;;;;;;;1.30;1.00;;;5.10;99.90;;;;;;5049941;28;20915;-48
2023/01/02 00:54:12;;;;;;;1.03;0.70;;;5.00;99.90;;;;;;5048866;28;20494;-48
2023/01/02 00:56:39;;;;;;;1.57;0.77;;;4.80;99.90;;;;;;5049666;28;20930;-48
2023/01/02 00:59:06;;;;;;;1.10;0.90;;;4.80;99.90;;;;;;5049647;28;20472;-50
2023/01/02 01:01:33;;;;;;;1.20;0.70;;;4.80;99.90;;;;;;5041865;28;20513;-51
2023/01/02 01:04:00;;;;;;;1.67;0.90;;;5.10;99.90;;;;;;5048420;28;20495;-49
2023/01/02 01:06:28;;;;;;;1.20;0.77;;;5.10;99.90;;;;;;5048849;28;20532;-49
2023/01/02 01:08:55;;;;;;;2.07;0.90;;;5.30;99.90;;;;;;5058085;28;20515;-48
2023/01/02 01:11:22;;;;;;;2.60;0.90;;;5.20;99.90;;;;;;5052287;28;20484;-49
2023/01/02 01:13:49;;;;;;;1.40;1.00;;;5.20;99.90;;;;;;5050825;28;20527;-47
2023/01/02 01:16:18;;;;;;;1.60;0.80;;;4.90;99.90;;;;;;5051927;28;20544;-49
2023/01/02 01:18:46;;;;;;;2.63;0.87;;;4.60;99.90;;;;;;5052405;28;20804;-48
2023/01/02 01:21:15;;;;;;;1.23;1.00;;;4.50;99.90;;;;;;5036949;28;20471;-50
2023/01/02 01:23:43;;;;;;;1.03;0.80;;;4.60;99.90;;;;;;5052525;28;20849;-48
2023/01/02 01:26:12;;;;;;;1.30;0.90;;;4.80;99.90;;;;;;5052524;28;20538;-50
2023/01/02 01:28:39;;;;;;;1.97;0.77;;;5.00;99.90;;;;;;5053297;28;21012;-48
2023/01/02 01:31:09;;;;;;;1.47;0.70;;;4.90;99.90;;;;;;5068897;28;20534;-48
2023/01/02 01:33:37;;;;;;;1.00;0.60;;;4.90;99.90;;;;;;5034573;28;20497;-48
2023/01/02 01:36:05;;;;;;;3.43;0.80;;;5.00;99.90;;;;;;5053098;28;20473;-48
2023/01/02 01:38:32;;;;;;;1.70;1.60;;;5.00;99.90;;;;;;5053102;28;20536;-48
2023/01/02 01:41:01;;;;;;;1.30;0.90;;;4.80;99.90;;;;;;5053682;28;20530;-47
2023/01/02 01:43:39;;;;;;;1.03;0.77;;;4.80;99.90;;;;;;5050257;28;20470;-48
2023/01/02 01:46:11;;;;;;;3.43;1.37;;;4.80;99.90;;;;;;5052537;28;20538;-48
2023/01/02 01:48:38;;;;;;;2.30;1.70;;;4.70;99.90;;;;;;5051318;28;21043;-51
2023/01/02 01:51:05;;;;;;;1.50;1.13;;;4.00;99.90;;;;;;5067362;28;20846;-48
2023/01/02 01:53:32;;;;;;;1.30;1.00;;;3.90;99.90;;;;;;5065947;28;20503;-49
2023/01/02 01:56:05;;;;;;;1.40;0.90;;;4.20;99.90;;;;;;5057742;28;20473;-49
2023/01/02 01:58:35;;;;;;;1.63;1.10;;;4.40;99.90;;;;;;5060239;28;20532;-49
2023/01/02 02:01:03;;;;;;;1.33;0.77;;;4.40;99.90;;;;;;5051677;28;20490;-51
2023/01/02 02:03:33;;;;;;;1.03;0.70;;;4.50;99.90;;;;;;5051122;28;20560;-51
2023/01/02 02:06:02;;;;;;;1.43;1.00;;;4.60;99.90;;;;;;5052695;28;20473;-48
2023/01/02 02:08:37;;;;;;;1.87;0.90;;;4.60;99.90;;;;;;5055632;28;20532;-49
2023/01/02 02:11:06;;;;;;;1.07;0.80;;;4.70;99.90;;;;;;5045733;28;20479;-49
2023/01/02 02:13:34;;;;;;;0.93;0.70;;;4.30;99.90;;;;;;5050856;28;21163;-49
2023/01/02 02:16:12;;;;;;;3.03;1.77;;;4.30;99.90;;;;;;5050623;28;20744;-48
2023/01/02 02:19:03;;;;;;;3.37;1.33;;;4.30;99.90;;;;;;5051101;28;20472;-49
2023/01/02 02:21:59;;;;;;;1.67;0.90;;;3.90;99.90;;;;;;5029039;28;20482;-48
2023/01/02 02:24:49;;;;;;;2.10;1.20;;;4.00;99.90;;;;;;5049856;28;20553;-49
2023/01/02 02:27:38;;;;;;;1.10;0.70;;;4.00;99.90;;;;;;5068218;28;21007;-48
2023/01/02 02:30:13;;;;;;;0.90;0.70;;;4.50;99.90;;;;;;5064244;28;20958;-48
2023/01/02 02:33:06;;;;;;;1.10;0.77;;;4.90;99.90;;;;;;5060110;28;20448;-50
2023/01/02 02:35:48;;;;;;;2.57;1.50;;;5.10;99.90;;;;;;5048283;28;21036;-48
2023/01/02 02:38:21;;;;;;;2.33;1.90;;;4.70;99.90;;;;;;5050657;28;20460;-47
2023/01/02 02:40:56;;;;;;;1.77;1.30;;;4.10;99.90;;;;;;5050823;28;20475;-48
2023/01/02 02:43:32;;;;;;;1.30;1.20;;;3.90;99.90;;;;;;5060377;28;20944;-48
2023/01/02 02:46:07;;;;;;;1.53;1.20;;;4.10;99.90;;;;;;5064339;28;20480;-48
2023/01/02 02:48:46;;;;;;;1.33;1.23;;;3.90;99.90;;;;;;5057914;28;20590;-48
2023/01/02 02:51:18;;;;;;;1.47;0.87;;;3.90;99.90;;;;;;5050417;28;20476;-49
2023/01/02 02:53:50;;;;;;;2.80;1.43;;;3.80;99.90;;;;;;5050645;28;20496;-49
2023/01/02 02:56:20;;;;;;;3.57;1.70;;;3.70;99.90;;;;;;5060740;28;20475;-50
2023/01/02 02:58:47;;;;;;;1.47;0.93;;;3.90;99.90;;;;;;5069391;28;20526;-49
2023/01/02 03:01:17;;;;;;;1.00;0.60;;;4.20;99.90;;;;;;5052585;28;20539;-45
2023/01/02 03:03:44;;;;;;;1.70;0.90;;;4.40;99.90;;;;;;5050263;28;20496;-48
2023/01/02 03:06:27;;;;;;;1.27;0.80;;;4.50;99.90;;;;;;5050891;28;20477;-47
2023/01/02 03:09:08;;;;;;;1.77;1.50;;;4.40;99.90;;;;;;5051801;28;20555;-48
2023/01/02 03:11:47;;;;;;;2.30;1.23;;;4.40;99.90;;;;;;5062959;28;20896;-49
2023/01/02 03:14:22;;;;;;;1.50;0.70;;;4.50;99.90;;;;;;5070578;28;20496;-46
2023/01/02 03:16:55;;;;;;;1.27;1.00;;;4.70;99.90;;;;;;5056596;28;20816;-49
2023/01/02 03:19:30;;;;;;;2.37;1.00;;;4.60;99.90;;;;;;5049857;28;20532;-50
2023/01/02 03:22:01;;;;;;;2.10;0.87;;;4.40;99.90;;;;;;5049685;28;20475;-49
2023/01/02 03:24:29;;;;;;;2.03;1.00;;;3.80;99.90;;;;;;5048283;28;20559;-49
2023/01/02 03:27:01;;;;;;;2.80;1.13;;;3.60;99.90;;;;;;5049948;28;20862;-48
2023/01/02 03:29:33;;;;;;;3.70;2.10;;;3.90;99.90;;;;;;5058811;28;20470;-49
2023/01/02 03:32:07;;;;;;;3.03;1.60;;;3.80;99.90;;;;;;5052277;28;20880;-49
2023/01/02 03:34:37;;;;;;;3.93;1.30;;;4.20;99.90;;;;;;5051786;28;20565;-52
2023/01/02 03:37:08;;;;;;;1.33;0.80;;;4.40;99.90;;;;;;5050781;28;20894;-49
2023/01/02 03:39:39;;;;;;;1.43;1.00;;;4.60;99.90;;;;;;5052108;28;20476;-48
2023/01/02 03:42:11;;;;;;;1.40;1.00;;;4.30;99.90;;;;;;5033395;28;20477;-49
2023/01/02 03:44:45;;;;;;;1.83;1.00;;;4.40;99.90;;;;;;5049686;28;20490;-48
2023/01/02 03:47:25;;;;;;;1.50;0.73;;;4.50;99.90;;;;;;5050747;28;20476;-49
2023/01/02 03:49:57;;;;;;;1.13;0.80;;;4.20;99.90;;;;;;5051003;28;20453;-49
2023/01/02 03:52:23;;;;;;;0.83;0.57;;;4.10;99.90;;;;;;5067968;28;20891;-48
2023/01/02 03:54:51;;;;;;;1.27;0.60;;;4.40;99.90;;;;;;5063917;28;20499;-48
2023/01/02 03:57:27;;;;;;;1.93;0.60;;;4.60;99.90;;;;;;5050285;28;20484;-48
2023/01/02 04:00:00;;;;;;;1.17;0.80;;;4.40;99.90;;;;;;5050619;28;20481;-49
2023/01/02 04:02:35;;;;;;;1.00;0.73;;;4.40;99.90;;;;;;5044455;28;20472;-49
2023/01/02 04:05:08;;;;;;;5.60;2.73;;;3.80;99.90;;;;;;5049424;28;21012;-48
2023/01/02 04:07:40;;;;;;;6.70;3.67;;;3.80;99.90;;;;;;5050357;28;20559;-49
2023/01/02 04:10:11;;;;;;;6.40;3.80;;;4.60;99.90;;;;;;5050042;28;20945;-48
2023/01/02 04:12:40;;;;;;;4.73;3.20;;;4.90;99.90;;;;;;5049393;28;20927;-48
2023/01/02 04:15:11;;;;;;;4.03;2.10;;;5.10;99.90;;;;;;5047938;28;20555;-48
2023/01/02 04:17:44;;;;;;;3.57;2.17;;;5.00;99.90;;;;;;5048482;28;20524;-50
2023/01/02 04:20:15;;;;;;;1.80;1.57;;;4.60;99.90;;;;;;5049077;28;21111;-50
2023/01/02 04:22:48;;;;;;;4.87;2.27;;;4.50;99.90;;;;;;5041902;28;20969;-48
2023/01/02 04:25:17;;;;;;;3.20;1.83;;;4.20;99.90;;;;;;5047262;28;20483;-44
2023/01/02 04:27:50;;;;;;;1.50;1.20;;;4.00;99.90;;;;;;5048850;28;20475;-48
2023/01/02 04:30:17;;;;;;;2.00;0.97;;;4.30;99.90;;;;;;5049747;28;20531;-49
2023/01/02 04:32:48;;;;;;;1.70;1.10;;;4.40;99.90;;;;;;5063508;28;20528;-48
2023/01/02 04:35:18;;;;;;;2.37;1.20;;;4.50;99.90;;;;;;5048087;28;20543;-47
2023/01/02 04:37:45;;;;;;;2.47;1.50;;;4.00;99.90;;;;;;5048122;28;20523;-48
2023/01/02 04:40:15;;;;;;;3.03;1.00;;;3.90;99.90;;;;;;5048438;28;20476;-52
2023/01/02 04:42:42;;;;;;;0.90;0.70;;;4.40;99.90;;;;;;5060373;28;20450;-51
2023/01/02 04:45:10;;;;;;;1.10;0.80;;;4.50;99.90;;;;;;5047441;28;21000;-49
2023/01/02 04:47:37;;;;;;;1.60;1.00;;;4.60;99.90;;;;;;5047826;28;20503;-48
2023/01/02 04:50:06;;;;;;;2.07;0.90;;;4.40;99.90;;;;;;5048464;28;20542;-48
2023/01/02 04:52:33;;;;;;;1.10;0.90;;;4.10;99.90;;;;;;5049036;28;20475;-50
2023/01/02 04:55:00;;;;;;;2.20;1.07;;;4.30;99.90;;;;;;5049970;28;20548;-49
2023/01/02 04:57:27;;;;;;;0.90;0.60;;;4.40;99.90;;;;;;5067617;28;20932;-47
2023/01/02 04:59:54;;;;;;;1.40;0.80;;;4.70;99.90;;;;;;5068093;28;20535;-49
2023/01/02 05:02:20;;;;;;;1.23;1.03;;;4.60;99.90;;;;;;5048204;28;20896;-48
2023/01/02 05:04:47;;;;;;;3.10;2.50;;;4.90;99.90;;;;;;5047337;28;20458;-48
2023/01/02 05:07:15;;;;;;;2.03;1.83;;;5.00;99.90;;;;;;5067087;28;20475;-45
2023/01/02 05:09:42;;;;;;;2.00;1.00;;;4.70;99.90;;;;;;5055850;28;21085;-48
2023/01/02 05:12:09;;;;;;;2.80;1.33;;;4.30;99.90;;;;;;5055531;28;20537;-48
2023/01/02 05:14:36;;;;;;;1.50;1.40;;;4.40;99.90;;;;;;5059438;28;20559;-51
2023/01/02 05:17:03;;;;;;;1.70;1.60;;;4.50;99.90;;;;;;5049479;28;20958;-48
2023/01/02 05:19:30;;;;;;;1.93;1.83;;;4.70;99.90;;;;;;5036244;28;20535;-50
2023/01/02 05:24:42;;;;;;;19.23;10.87;;;4.60;99.90;;;;;;5048054;28;20988;-47
2023/01/02 05:27:09;;;;;;;6.93;4.40;;;4.30;99.90;;;;;;5049198;28;20477;-48
2023/01/02 05:29:36;;;;;;;4.00;2.30;;;4.20;99.90;;;;;;5066346;28;20558;-48
2023/01/02 05:32:03;;;;;;;1.87;1.10;;;4.40;99.90;;;;;;5069969;28;20772;-48
2023/01/02 05:34:30;;;;;;;1.90;1.13;;;4.60;99.90;;;;;;5059886;28;20540;-49
2023/01/02 05:36:57;;;;;;;1.83;1.60;;;4.90;99.90;;;;;;5049542;28;20525;-49
2023/01/02 05:39:24;;;;;;;4.00;2.57;;;4.90;99.90;;;;;;5052236;28;21039;-50
2023/01/02 05:41:52;;;;;;;2.43;2.23;;;4.70;99.90;;;;;;5050251;28;20475;-49
2023/01/02 05:44:19;;;;;;;2.10;1.90;;;4.40;99.90;;;;;;5031919;28;20537;-48
2023/01/02 05:46:46;;;;;;;1.97;1.70;;;4.30;99.90;;;;;;5048957;28;20532;-48
2023/01/02 05:49:13;;;;;;;1.60;1.47;;;4.40;99.90;;;;;;5053335;28;21069;-50
2023/01/02 05:51:40;;;;;;;2.40;2.20;;;4.60;99.90;;;;;;5049382;28;20479;-48
2023/01/02 05:54:07;;;;;;;3.03;2.50;;;4.70;99.90;;;;;;5048582;28;20530;-50
2023/01/02 05:56:34;;;;;;;5.57;5.00;;;4.80;99.90;;;;;;5052543;28;20510;-47
2023/01/02 05:59:06;;;;;;;5.60;3.90;;;4.70;99.90;;;;;;5055279;28;20874;-48
2023/01/02 06:01:32;;;;;;;3.20;2.40;;;4.50;99.90;;;;;;5051809;28;20896;-49
2023/01/02 06:04:00;;;;;;;2.10;1.93;;;4.10;99.90;;;;;;5049602;28;21231;-48
2023/01/02 06:06:31;;;;;;;2.33;1.63;;;4.20;99.90;;;;;;5050179;28;20468;-49
2023/01/02 06:08:59;;;;;;;5.83;2.60;;;4.00;99.90;;;;;;5053864;28;20512;-49
2023/01/02 06:11:26;;;;;;;4.93;2.47;;;4.00;99.90;;;;;;5047950;28;20471;-48
2023/01/02 06:13:54;;;;;;;3.30;1.80;;;3.80;99.90;;;;;;5051414;28;20544;-48
2023/01/02 06:16:23;;;;;;;1.80;1.30;;;4.20;99.90;;;;;;5051303;28;20448;-48
2023/01/02 06:18:50;;;;;;;2.00;0.90;;;4.30;99.90;;;;;;5062946;28;20530;-48
2023/01/02 06:21:19;;;;;;;2.07;1.60;;;4.30;99.90;;;;;;5071501;28;20531;-48
2023/01/02 06:23:47;;;;;;;3.10;2.13;;;4.30;99.90;;;;;;5069059;28;20498;-48
2023/01/02 06:26:16;;;;;;;3.70;2.40;;;4.30;99.90;;;;;;5051269;28;20909;-46
2023/01/02 06:28:44;;;;;;;2.50;1.60;;;4.20;99.90;;;;;;5049272;28;20474;-48
2023/01/02 06:31:13;;;;;;;2.50;1.53;;;4.30;99.90;;;;;;5052318;28;20531;-50
2023/01/02 06:33:41;;;;;;;2.30;1.47;;;4.50;99.90;;;;;;5051401;28;20552;-48
2023/01/02 06:36:10;;;;;;;1.70;1.17;;;4.60;99.90;;;;;;5051636;28;20533;-48
2023/01/02 06:38:37;;;;;;;9.00;6.80;;;4.50;99.90;;;;;;5059322;28;20468;-48
2023/01/02 06:41:06;;;;;;;3.20;2.43;;;4.40;99.90;;;;;;5051595;28;21005;-48
2023/01/02 06:43:34;;;;;;;3.30;1.53;;;4.30;99.90;;;;;;5049650;28;20473;-48
2023/01/02 06:46:03;;;;;;;2.27;2.00;;;4.40;99.90;;;;;;5040468;28;20540;-48
2023/01/02 06:48:31;;;;;;;2.60;2.10;;;4.40;99.90;;;;;;5038888;28;20476;-48
2023/01/02 06:51:00;;;;;;;2.17;1.40;;;4.30;99.90;;;;;;5042254;28;20483;-50
2023/01/02 06:53:27;;;;;;;1.20;0.90;;;4.50;99.90;;;;;;5050812;28;20885;-48
2023/01/02 06:55:55;;;;;;;1.10;0.80;;;4.50;99.90;;;;;;5051766;28;20873;-48
2023/01/02 06:58:22;;;;;;;1.13;0.80;;;4.40;99.90;;;;;;5054784;28;20468;-48
2023/01/02 07:00:50;;;;;;;1.10;0.80;;;4.50;99.90;;;;;;5051830;28;20538;-48
2023/01/02 07:03:17;;;;;;;1.77;0.60;;;4.60;99.90;;;;;;5057798;28;20539;-47
2023/01/02 07:05:44;;;;;;;1.37;0.70;;;4.50;99.90;;;;;;5069320;28;20478;-48
2023/01/02 07:08:13;;;;;;;1.93;1.20;;;4.50;99.90;;;;;;5062681;28;20481;-51
2023/01/02 07:10:40;;;;;;;1.30;0.97;;;4.60;99.90;;;;;;5060461;28;20949;-49
2023/01/02 07:13:07;;;;;;;2.80;1.40;;;4.50;99.90;;;;;;5048933;28;20483;-51
2023/01/02 07:15:35;;;;;;;1.30;1.00;;;4.60;99.90;;;;;;5049753;28;20530;-49
2023/01/02 07:18:02;;;;;;;4.37;2.50;;;4.40;99.90;;;;;;5049574;28;20510;-51
2023/01/02 07:20:28;;;;;;;2.40;2.20;;;4.20;99.90;;;;;;5055427;28;20531;-48
2023/01/02 07:22:55;;;;;;;4.87;3.00;;;4.20;99.90;;;;;;5049465;28;20520;-51
2023/01/02 07:25:24;;;;;;;3.67;2.90;;;4.00;99.90;;;;;;5055764;28;20554;-49
2023/01/02 07:27:50;;;;;;;4.70;3.53;;;4.30;99.90;;;;;;5062492;28;20550;-48
2023/01/02 07:30:17;;;;;;;5.83;3.40;;;4.30;99.90;;;;;;5053593;28;21032;-48
2023/01/02 07:32:44;;;;;;;4.40;2.27;;;4.40;99.90;;;;;;5050965;28;20528;-50
2023/01/02 07:35:11;;;;;;;6.03;2.20;;;4.80;99.90;;;;;;5049742;28;20491;-48
2023/01/02 07:37:38;;;;;;;4.10;3.70;;;4.90;99.90;;;;;;5054051;28;20467;-49
2023/01/02 07:40:06;;;;;;;7.50;4.90;;;4.80;99.90;;;;;;5050419;28;20543;-48
2023/01/02 07:42:34;;;;;;;6.50;4.30;;;4.50;99.90;;;;;;5048702;28;20543;-50
2023/01/02 07:45:01;;;;;;;16.23;12.27;;;4.10;99.90;;;;;;5050014;28;20558;-50
2023/01/02 07:47:28;;;;;;;11.77;9.40;;;4.00;99.90;;;;;;5061389;28;20926;-48
2023/01/02 07:49:55;;;;;;;4.60;4.10;;;3.90;99.90;;;;;;5050645;28;20894;-49
2023/01/02 07:52:22;;;;;;;6.17;3.80;;;3.90;99.90;;;;;;5055203;28;21114;-48
2023/01/02 07:54:49;;;;;;;28.27;21.20;;;4.00;99.90;;;;;;5063287;28;21060;-48
2023/01/02 07:57:16;;;;;;;12.47;10.43;;;3.90;99.90;;;;;;5062034;28;21012;-46
2023/01/02 07:59:45;;;;;;;6.37;5.50;;;4.10;99.90;;;;;;5070417;28;20535;-49
2023/01/02 08:02:12;;;;;;;7.80;6.87;;;4.30;99.90;;;;;;5058656;28;20473;-52
2023/01/02 08:04:39;;;;;;;8.70;7.80;;;4.40;99.90;;;;;;5059209;28;20465;-48
2023/01/02 08:07:06;;;;;;;5.50;4.53;;;4.20;99.90;;;;;;5059046;28;20440;-49
2023/01/02 08:09:33;;;;;;;3.20;2.53;;;4.10;99.90;;;;;;5044440;28;20897;-50
2023/01/02 08:12:00;;;;;;;2.30;1.90;;;4.40;99.90;;;;;;5050548;28;20949;-48
2023/01/02 08:14:27;;;;;;;3.90;2.53;;;4.50;99.90;;;;;;5048972;28;20496;-48
2023/01/02 08:16:55;;;;;;;2.07;1.60;;;4.70;99.90;;;;;;5049346;28;20554;-48
2023/01/02 08:19:22;;;;;;;2.40;1.97;;;4.70;99.90;;;;;;5054006;28;20869;-49
2023/01/02 08:21:49;;;;;;;5.13;3.77;;;4.80;99.90;;;;;;5053094;28;20472;-48
2023/01/02 08:24:16;;;;;;;2.37;1.70;;;4.90;99.90;;;;;;5060538;28;20506;-49
2023/01/02 08:26:42;;;;;;;2.30;2.10;;;4.80;99.90;;;;;;5054869;28;20487;-50
2023/01/02 08:29:09;;;;;;;2.30;1.97;;;4.60;99.90;;;;;;5066621;28;20551;-48
2023/01/02 08:31:36;;;;;;;4.77;2.93;;;4.50;99.90;;;;;;5058974;28;20477;-49
2023/01/02 08:34:05;;;;;;;6.33;3.70;;;4.20;99.90;;;;;;5062397;28;21055;-48
2023/01/02 08:36:31;;;;;;;3.10;2.57;;;3.70;99.90;;;;;;5036596;28;20457;-49
2023/01/02 08:38:58;;;;;;;5.03;3.00;;;4.10;99.90;;;;;;5049917;28;20510;-49
2023/01/02 08:41:33;;;;;;;9.83;8.73;;;4.40;99.90;;;;;;5049554;28;20471;-48
2023/01/02 08:44:00;;;;;;;3.10;2.80;;;4.50;99.90;;;;;;5048771;28;20545;-48
2023/01/02 08:46:27;;;;;;;3.20;2.90;;;4.70;99.90;;;;;;5049453;28;20445;-49
2023/01/02 08:48:54;;;;;;;4.50;3.40;;;4.80;99.90;;;;;;5049648;28;21037;-47
2023/01/02 08:51:23;;;;;;;6.90;5.87;;;4.60;99.90;;;;;;5048761;28;20761;-51
2023/01/02 08:53:50;;;;;;;6.73;5.40;;;4.20;99.90;;;;;;5047541;28;20459;-47
2023/01/02 08:56:21;;;;;;;4.23;3.17;;;3.70;99.90;;;;;;5049070;28;20452;-49
2023/01/02 08:58:53;;;;;;;2.90;2.50;;;4.00;99.90;;;;;;5050157;28;20532;-48
2023/01/02 09:01:20;;;;;;;3.37;2.77;;;4.40;99.90;;;;;;5049656;28;20480;-48
2023/01/02 09:03:47;;;;;;;4.10;2.60;;;4.00;99.90;;;;;;5047987;28;20500;-48
2023/01/02 09:06:14;;;;;;;10.97;4.90;;;4.10;99.90;;;;;;5049400;28;20867;-46
2023/01/02 09:08:42;;;;;;;4.67;4.20;;;4.20;99.90;;;;;;5049225;28;20524;-48
2023/01/02 09:11:14;;;;;;;4.00;2.80;;;4.10;99.90;;;;;;5049565;28;20512;-48
2023/01/02 09:13:41;;;;;;;4.60;2.60;;;4.30;99.90;;;;;;5049355;28;20544;-51
2023/01/02 09:16:09;;;;;;;2.33;1.70;;;4.40;99.90;;;;;;5049466;28;20448;-47
2023/01/02 09:18:37;;;;;;;7.33;2.50;;;4.20;99.90;;;;;;5048830;28;20899;-48
2023/01/02 09:21:04;;;;;;;2.50;2.00;;;4.40;99.90;;;;;;5033035;28;20523;-48
2023/01/02 09:23:32;;;;;;;1.67;1.53;;;4.30;99.90;;;;;;5048452;28;21026;-48
2023/01/02 09:26:02;;;;;;;2.10;1.77;;;4.60;99.90;;;;;;5048852;28;20905;-48
2023/01/02 09:28:30;;;;;;;3.73;3.13;;;4.60;99.90;;;;;;5049413;28;20450;-48
2023/01/02 09:30:56;;;;;;;3.13;2.07;;;4.70;99.90;;;;;;5053341;28;20557;-48
2023/01/02 09:33:24;;;;;;;3.20;2.00;;;4.80;99.90;;;;;;5052170;28;20539;-48
2023/01/02 09:35:51;;;;;;;1.60;1.37;;;4.50;99.90;;;;;;5052957;28;20885;-48
2023/01/02 09:38:18;;;;;;;1.73;1.27;;;4.50;99.90;;;;;;5052461;28;20538;-50
2023/01/02 09:40:49;;;;;;;3.53;1.77;;;4.70;99.90;;;;;;5054790;28;20937;-48
2023/01/02 09:43:27;;;;;;;1.80;1.23;;;4.80;99.90;;;;;;5052119;28;20539;-46
2023/01/02 09:45:58;;;;;;;1.83;1.13;;;4.90;99.90;;;;;;5053210;28;20436;-48
2023/01/02 09:48:28;;;;;;;1.33;0.83;;;5.00;99.90;;;;;;5053004;28;20459;-48
2023/01/02 09:50:55;;;;;;;1.13;0.80;;;4.90;99.90;;;;;;5053456;28;20568;-48
2023/01/02 09:53:22;;;;;;;1.77;0.80;;;5.00;99.90;;;;;;5049657;28;20547;-48
2023/01/02 09:55:53;;;;;;;1.93;1.07;;;5.00;99.90;;;;;;5052748;28;20500;-48
2023/01/02 09:58:35;;;;;;;3.80;2.70;;;5.00;99.90;;;;;;5052348;28;20884;-48
2023/01/02 10:01:03;;;;;;;1.50;1.20;;;4.80;99.90;;;;;;5053586;28;20469;-49
2023/01/02 10:03:40;;;;;;;2.30;1.43;;;4.90;99.90;;;;;;5051406;28;20461;-48
2023/01/02 10:06:15;;;;;;;2.50;1.40;;;5.10;99.90;;;;;;5052763;28;21014;-48
2023/01/02 10:08:51;;;;;;;1.60;1.00;;;5.30;99.90;;;;;;5052150;28;20524;-48
2023/01/02 10:11:30;;;;;;;2.37;1.33;;;5.40;99.90;;;;;;5052534;28;20563;-48
2023/01/02 10:14:01;;;;;;;1.50;1.00;;;5.50;99.90;;;;;;5051853;28;20519;-48
2023/01/02 10:16:32;;;;;;;2.10;1.67;;;5.70;99.90;;;;;;5052436;28;20524;-48
2023/01/02 10:19:03;;;;;;;2.70;2.10;;;5.90;99.90;;;;;;5052561;28;20530;-48
2023/01/02 10:21:33;;;;;;;1.40;1.00;;;5.80;99.90;;;;;;5052481;28;20520;-48
2023/01/02 10:24:05;;;;;;;1.30;1.07;;;6.10;99.90;;;;;;5051227;28;20548;-48
2023/01/02 10:26:35;;;;;;;2.40;1.20;;;6.40;99.90;;;;;;5051918;28;20481;-48
2023/01/02 10:29:13;;;;;;;3.00;1.70;;;6.40;99.90;;;;;;5052706;28;20453;-48
2023/01/02 10:31:44;;;;;;;2.20;1.10;;;6.60;99.90;;;;;;5052129;28;20477;-48
2023/01/02 10:34:16;;;;;;;2.30;1.63;;;6.70;99.90;;;;;;5051397;28;20457;-49
2023/01/02 10:36:45;;;;;;;2.73;1.97;;;6.70;99.90;;;;;;5052743;28;20480;-49
2023/01/02 10:39:16;;;;;;;3.93;3.20;;;6.80;99.90;;;;;;5052344;28;20473;-48
2023/01/02 10:41:46;;;;;;;5.40;4.30;;;6.90;99.90;;;;;;5052011;28;20442;-49
2023/01/02 10:44:22;;;;;;;5.50;4.30;;;6.90;99.90;;;;;;5050938;28;20476;-47
2023/01/02 10:46:48;;;;;;;5.67;5.17;;;6.80;99.90;;;;;;5052483;28;20473;-49
2023/01/02 10:49:16;;;;;;;5.63;5.00;;;6.80;99.90;;;;;;5051276;28;20473;-45
2023/01/02 10:51:49;;;;;;;5.17;4.03;;;6.90;99.90;;;;;;5051704;28;20520;-47
2023/01/02 10:54:15;;;;;;;4.90;4.40;;;7.00;99.90;;;;;;5042531;28;20518;-47
2023/01/02 10:56:46;;;;;;;5.70;4.30;;;7.00;99.90;;;;;;5045537;28;20663;-47
2023/01/02 10:59:22;;;;;;;6.67;3.60;;;7.10;99.90;;;;;;5051670;28;20528;-48
2023/01/02 11:01:51;;;;;;;3.57;2.70;;;7.30;99.90;;;;;;5052165;28;20538;-47
2023/01/02 11:04:22;;;;;;;2.47;1.63;;;7.60;99.90;;;;;;5050319;28;20656;-46
2023/01/02 11:06:55;;;;;;;2.30;2.00;;;7.90;99.90;;;;;;5051430;28;20477;-48
2023/01/02 11:09:24;;;;;;;2.47;1.87;;;8.20;99.90;;;;;;5041913;28;20545;-49
2023/01/02 11:11:53;;;;;;;3.50;2.73;;;8.00;99.90;;;;;;5031729;28;20512;-48
2023/01/02 11:14:31;;;;;;;6.30;4.90;;;8.00;99.90;;;;;;5049069;28;21026;-50
2023/01/02 11:17:04;;;;;;;6.00;4.70;;;8.10;99.90;;;;;;5050578;28;20520;-48
2023/01/02 11:19:31;;;;;;;4.60;3.73;;;8.00;99.90;;;;;;5049105;28;20487;-49
2023/01/02 11:21:58;;;;;;;6.50;4.93;;;8.00;99.90;;;;;;5050336;28;20441;-48
2023/01/02 11:24:27;;;;;;;6.00;5.07;;;8.10;99.90;;;;;;5048310;28;20572;-49
2023/01/02 11:26:55;;;;;;;5.93;4.47;;;8.20;99.90;;;;;;5050035;28;20452;-47
2023/01/02 11:29:28;;;;;;;4.20;3.67;;;8.20;99.90;;;;;;5047867;28;20446;-48
2023/01/02 11:31:57;;;;;;;4.37;3.50;;;8.30;99.90;;;;;;5049973;28;20477;-49
2023/01/02 11:34:27;;;;;;;4.50;3.33;;;8.30;99.90;;;;;;5048830;28;20581;-50
2023/01/02 11:37:03;;;;;;;5.37;4.20;;;8.30;99.90;;;;;;5047850;28;20501;-48
2023/01/02 11:39:32;;;;;;;6.93;4.67;;;8.30;99.90;;;;;;5049360;28;20465;-49
2023/01/02 11:45:02;;;;;;;7.63;4.23;;;8.20;99.90;;;;;;5046933;28;20547;-47
2023/01/02 11:47:34;;;;;;;5.30;4.77;;;8.30;99.90;;;;;;5050056;28;20433;-50
2023/01/02 11:50:02;;;;;;;5.23;4.23;;;8.50;99.90;;;;;;5048762;28;20516;-48
2023/01/02 11:52:36;;;;;;;5.90;4.77;;;8.50;99.90;;;;;;5047153;28;20533;-48
2023/01/02 11:55:13;;;;;;;5.23;4.40;;;8.60;99.90;;;;;;5050376;28;21017;-48
2023/01/02 11:57:47;;;;;;;6.17;4.33;;;8.70;99.90;;;;;;5050674;28;20449;-48
2023/01/02 12:00:18;;;;;;;3.63;3.20;;;8.70;99.90;;;;;;5050092;28;20449;-49
2023/01/02 12:02:46;;;;;;;3.70;3.10;;;8.60;99.90;;;;;;5048531;28;20528;-48
2023/01/02 12:05:15;;;;;;;4.20;3.00;;;8.80;99.90;;;;;;5046239;28;20982;-48
2023/01/02 12:07:45;;;;;;;3.97;3.30;;;8.70;99.90;;;;;;5050503;28;20525;-48
2023/01/02 12:10:29;;;;;;;6.37;4.23;;;8.90;99.90;;;;;;5049892;28;20567;-49
2023/01/02 12:13:11;;;;;;;10.37;7.17;;;9.00;99.90;;;;;;5048559;28;20519;-47
2023/01/02 12:16:11;;;;;;;16.03;11.90;;;9.00;99.90;;;;;;5049510;28;20537;-48
2023/01/02 12:19:08;;;;;;;5.27;3.97;;;9.10;99.90;;;;;;5014125;28;20498;-47
2023/01/02 12:21:41;;;;;;;2.53;1.77;;;9.00;99.90;;;;;;5029841;28;20521;-48
2023/01/02 12:24:28;;;;;;;2.57;2.17;;;9.10;99.90;;;;;;5029472;28;20576;-49
2023/01/02 12:27:02;;;;;;;1.83;1.50;;;9.00;99.90;;;;;;5041888;28;20474;-49
2023/01/02 12:29:47;;;;;;;1.93;1.60;;;9.00;99.90;;;;;;5049845;28;20491;-48
2023/01/02 12:32:49;;;;;;;4.03;2.00;;;9.10;99.90;;;;;;5049550;28;20513;-45
2023/01/02 12:35:43;;;;;;;2.53;1.50;;;9.30;99.90;;;;;;5048881;28;20493;-47
2023/01/02 12:38:13;;;;;;;1.73;1.33;;;9.20;99.90;;;;;;5032860;28;20553;-48
2023/01/02 12:40:49;;;;;;;3.30;2.37;;;9.30;99.90;;;;;;5049887;28;20943;-49
2023/01/02 12:43:39;;;;;;;3.07;1.57;;;9.30;99.90;;;;;;5048968;28;20481;-48
2023/01/02 12:46:16;;;;;;;1.73;1.43;;;9.40;99.90;;;;;;5040093;28;20493;-48
2023/01/02 12:49:10;;;;;;;2.37;1.70;;;9.40;99.90;;;;;;5049780;28;20524;-47
2023/01/02 12:51:42;;;;;;;3.93;1.57;;;9.50;99.90;;;;;;5049715;28;20556;-48
2023/01/02 12:54:30;;;;;;;2.80;1.90;;;9.50;99.90;;;;;;5047618;28;20493;-48
2023/01/02 12:57:05;;;;;;;3.43;1.70;;;9.30;99.90;;;;;;5043244;28;20537;-48
2023/01/02 13:00:02;;;;;;;2.10;1.60;;;9.30;99.90;;;;;;5035528;28;21025;-48
2023/01/02 13:02:43;;;;;;;2.27;1.53;;;9.30;99.90;;;;;;5048756;28;20442;-48
2023/01/02 13:05:17;;;;;;;3.30;2.13;;;9.20;99.90;;;;;;5048163;28;20547;-48
2023/01/02 13:07:48;;;;;;;3.60;1.80;;;9.30;99.90;;;;;;5049978;28;20527;-47
2023/01/02 13:10:19;;;;;;;3.00;2.10;;;9.40;99.90;;;;;;5049566;28;20899;-45
2023/01/02 13:12:47;;;;;;;2.43;1.73;;;9.30;99.90;;;;;;5041126;28;20522;-49
2023/01/02 13:15:19;;;;;;;2.33;1.70;;;9.30;99.90;;;;;;5048528;28;20505;-47
2023/01/02 13:18:00;;;;;;;2.30;1.40;;;9.20;99.90;;;;;;5049223;28;20477;-49
2023/01/02 13:20:44;;;;;;;2.57;2.00;;;9.20;99.90;;;;;;5032672;28;20496;-48